createdAt,value
2023-04-01T00:00:13.322Z,6.96
2023-04-01T00:02:44.863Z,6.96
2023-04-01T00:05:17.656Z,6.94
2023-04-01T00:07:49.071Z,6.96
2023-04-01T00:10:20.555Z,6.87
2023-04-01T00:12:51.888Z,6.95
2023-04-01T00:15:23.446Z,6.96
2023-04-01T00:17:55.426Z,6.93
2023-04-01T00:20:27.178Z,6.93
2023-04-01T00:22:58.608Z,6.86
2023-04-01T00:25:30.381Z,6.78
2023-04-01T00:28:02.947Z,6.82
2023-04-01T00:30:34.469Z,6.86
2023-04-01T00:33:05.992Z,6.84
2023-04-01T00:35:37.860Z,6.88
2023-04-01T00:38:09.321Z,6.89
2023-04-01T00:40:44.512Z,6.88
2023-04-01T00:43:19.325Z,6.90
2023-04-01T00:45:50.976Z,6.93
2023-04-01T00:48:34.318Z,6.93
2023-04-01T00:51:08.384Z,6.94
2023-04-01T00:53:42.489Z,6.86
2023-04-01T00:56:16.604Z,6.93
2023-04-01T00:58:51.631Z,6.95
2023-04-01T01:01:24.984Z,6.95
2023-04-01T01:03:56.491Z,6.97
2023-04-01T01:06:43.225Z,6.97
2023-04-01T01:09:28.593Z,6.99
2023-04-01T01:12:06.019Z,7.01
2023-04-01T01:14:37.362Z,7.08
2023-04-01T01:17:11.496Z,7.12
2023-04-01T01:19:49.090Z,7.17
2023-04-01T01:22:28.421Z,7.15
2023-04-01T01:25:18.669Z,7.14
2023-04-01T01:27:55.728Z,7.20
2023-04-01T01:30:54.833Z,7.15
2023-04-01T01:33:26.420Z,7.14
2023-04-01T01:36:00.359Z,7.11
2023-04-01T01:38:34.215Z,7.14
2023-04-01T01:41:07.461Z,7.10
2023-04-01T01:43:43.882Z,7.13
2023-04-01T01:46:17.895Z,7.08
2023-04-01T01:48:51.716Z,7.03
2023-04-01T01:51:23.750Z,7.00
2023-04-01T01:53:55.304Z,7.06
2023-04-01T01:56:28.705Z,7.10
2023-04-01T01:59:03.759Z,7.06
2023-04-01T02:01:38.549Z,7.08
2023-04-01T02:04:11.390Z,7.04
2023-04-01T02:06:47.498Z,7.09
2023-04-01T02:09:19.772Z,7.03
2023-04-01T02:11:53.570Z,7.06
2023-04-01T02:14:27.061Z,7.06
2023-04-01T02:17:18.043Z,7.08
2023-04-01T02:20:00.311Z,6.97
2023-04-01T02:22:36.784Z,7.03
2023-04-01T02:25:10.281Z,7.06
2023-04-01T02:27:43.800Z,7.02
2023-04-01T02:30:16.375Z,7.06
2023-04-01T02:32:48.058Z,7.05
2023-04-01T02:35:19.934Z,7.03
2023-04-01T02:37:52.902Z,6.98
2023-04-01T02:40:24.334Z,7.00
2023-04-01T02:42:55.708Z,6.98
2023-04-01T02:45:27.182Z,7.00
2023-04-01T02:47:58.636Z,6.97
2023-04-01T02:50:30.007Z,6.99
2023-04-01T02:53:01.796Z,7.01
2023-04-01T02:55:34.258Z,7.03
2023-04-01T02:58:05.762Z,7.01
2023-04-01T03:00:37.212Z,6.91
2023-04-01T03:03:09.187Z,6.80
2023-04-01T03:05:40.855Z,6.84
2023-04-01T03:08:12.849Z,6.88
2023-04-01T03:10:44.256Z,6.91
2023-04-01T03:13:15.853Z,6.88
2023-04-01T03:15:47.207Z,6.87
2023-04-01T03:18:18.699Z,6.86
2023-04-01T03:20:50.085Z,6.85
2023-04-01T03:23:22.057Z,6.78
2023-04-01T03:25:53.507Z,6.73
2023-04-01T03:28:25.010Z,6.64
2023-04-01T03:30:56.436Z,6.66
2023-04-01T03:33:27.789Z,6.64
2023-04-01T03:35:59.529Z,6.53
2023-04-01T03:38:31.125Z,6.57
2023-04-01T03:41:03.028Z,6.61
2023-04-01T03:43:34.785Z,6.65
2023-04-01T03:46:06.326Z,6.64
2023-04-01T03:48:37.677Z,6.60
2023-04-01T03:51:09.403Z,6.60
2023-04-01T03:53:40.956Z,6.56
2023-04-01T03:56:12.460Z,6.50
2023-04-01T03:58:43.803Z,6.44
2023-04-01T04:01:22.846Z,6.43
2023-04-01T04:03:54.411Z,6.44
2023-04-01T04:06:26.245Z,6.41
2023-04-01T04:08:57.976Z,6.35
2023-04-01T04:11:31.530Z,6.43
2023-04-01T04:14:03.163Z,6.48
2023-04-01T04:16:37.450Z,6.49
2023-04-01T04:19:08.982Z,6.56
2023-04-01T04:21:41.129Z,6.59
2023-04-01T04:24:12.506Z,6.64
2023-04-01T04:26:43.844Z,6.66
2023-04-01T04:29:15.285Z,6.63
2023-04-01T04:31:46.678Z,6.69
2023-04-01T04:34:19.395Z,6.68
2023-04-01T04:36:51.050Z,6.65
2023-04-01T04:39:22.428Z,6.72
2023-04-01T04:41:53.748Z,6.66
2023-04-01T04:44:25.134Z,6.70
2023-04-01T04:46:58.393Z,6.75
2023-04-01T04:49:30.013Z,6.75
2023-04-01T04:52:01.363Z,6.88
2023-04-01T04:54:32.753Z,6.87
2023-04-01T04:57:04.551Z,6.90
2023-04-01T04:59:36.151Z,6.93
2023-04-01T05:02:07.597Z,6.92
2023-04-01T05:04:39.031Z,7.00
2023-04-01T05:07:10.742Z,6.99
2023-04-01T05:09:42.191Z,7.00
2023-04-01T05:12:14.003Z,7.00
2023-04-01T05:14:45.701Z,7.04
2023-04-01T05:17:17.117Z,7.08
2023-04-01T05:19:48.495Z,7.04
2023-04-01T05:22:19.810Z,7.09
2023-04-01T05:24:51.226Z,7.09
2023-04-01T05:27:22.719Z,7.09
2023-04-01T05:29:54.042Z,7.13
2023-04-01T05:32:25.689Z,7.14
2023-04-01T05:34:57.114Z,7.07
2023-04-01T05:37:28.457Z,7.12
2023-04-01T05:39:59.896Z,7.14
2023-04-01T05:42:31.257Z,7.16
2023-04-01T05:45:02.673Z,7.20
2023-04-01T05:47:34.096Z,7.24
2023-04-01T05:50:05.989Z,7.23
2023-04-01T05:52:37.649Z,7.25
2023-04-01T05:55:09.317Z,7.27
2023-04-01T05:57:40.875Z,7.23
2023-04-01T06:00:12.788Z,7.27
2023-04-01T06:02:44.300Z,7.34
2023-04-01T06:05:18.763Z,7.34
2023-04-01T06:07:51.929Z,7.38
2023-04-01T06:10:24.971Z,7.40
2023-04-01T06:13:19.100Z,7.43
2023-04-01T06:15:59.181Z,7.42
2023-04-01T06:18:49.397Z,7.55
2023-04-01T06:21:30.442Z,7.52
2023-04-01T06:24:17.186Z,7.57
2023-04-01T06:26:48.552Z,7.51
2023-04-01T06:29:22.931Z,7.59
2023-04-01T06:32:00.155Z,7.60
2023-04-01T06:34:50.576Z,7.67
2023-04-01T06:37:25.432Z,7.69
2023-04-01T06:40:06.827Z,7.74
2023-04-01T06:42:38.205Z,7.76
2023-04-01T06:45:24.932Z,7.73
2023-04-01T06:47:59.422Z,7.82
2023-04-01T06:50:31.082Z,7.91
2023-04-01T06:53:08.442Z,8.00
2023-04-01T06:55:48.382Z,8.05
2023-04-01T06:58:30.369Z,8.12
2023-04-01T07:01:09.369Z,8.16
2023-04-01T07:03:53.049Z,8.23
2023-04-01T07:06:37.617Z,8.29
2023-04-01T07:09:15.709Z,8.38
2023-04-01T07:11:47.579Z,8.38
2023-04-01T07:14:18.988Z,8.51
2023-04-01T07:17:09.895Z,8.66
2023-04-01T07:19:47.400Z,8.78
2023-04-01T07:22:18.778Z,8.71
2023-04-01T07:24:50.799Z,8.76
2023-04-01T07:27:22.420Z,8.80
2023-04-01T07:29:56.778Z,8.91
2023-04-01T07:32:34.862Z,8.96
2023-04-01T07:35:13.443Z,8.93
2023-04-01T07:37:56.716Z,9.08
2023-04-01T07:40:36.419Z,8.93
2023-04-01T07:43:18.648Z,9.05
2023-04-01T07:46:08.680Z,9.21
2023-04-01T07:48:48.402Z,9.24
2023-04-01T07:51:38.742Z,9.17
2023-04-01T07:54:17.274Z,9.25
2023-04-01T07:57:02.728Z,9.10
2023-04-01T07:59:37.991Z,9.16
2023-04-01T08:02:28.070Z,9.23
2023-04-01T08:05:15.340Z,9.24
2023-04-01T08:07:54.749Z,9.40
2023-04-01T08:10:37.858Z,9.43
2023-04-01T08:13:11.546Z,9.58
2023-04-01T08:15:42.888Z,9.67
2023-04-01T08:18:32.691Z,9.71
2023-04-01T08:21:06.656Z,9.61
2023-04-01T08:23:39.697Z,9.63
2023-04-01T08:26:17.760Z,9.53
2023-04-01T08:28:58.390Z,9.61
2023-04-01T08:31:35.771Z,9.87
2023-04-01T08:34:12.655Z,9.96
2023-04-01T08:36:45.930Z,10.01
2023-04-01T08:39:19.296Z,9.99
2023-04-01T08:41:53.878Z,10.01
2023-04-01T08:44:37.139Z,10.15
2023-04-01T08:47:21.410Z,10.09
2023-04-01T08:50:11.462Z,10.09
2023-04-01T08:52:47.692Z,10.06
2023-04-01T08:55:34.532Z,10.20
2023-04-01T08:58:26.401Z,10.12
2023-04-01T09:01:03.930Z,10.16
2023-04-01T09:03:45.398Z,10.28
2023-04-01T09:06:23.081Z,10.32
2023-04-01T09:09:15.320Z,10.59
2023-04-01T09:11:56.170Z,10.90
2023-04-01T09:14:30.320Z,10.97
2023-04-01T09:17:04.401Z,10.87
2023-04-01T09:19:41.912Z,10.87
2023-04-01T09:22:16.095Z,10.88
2023-04-01T09:25:06.527Z,11.11
2023-04-01T09:27:37.854Z,10.94
2023-04-01T09:30:11.982Z,10.76
2023-04-01T09:32:52.416Z,10.94
2023-04-01T09:35:25.811Z,11.15
2023-04-01T09:38:15.773Z,11.34
2023-04-01T09:40:59.348Z,11.50
2023-04-01T09:43:45.978Z,11.74
2023-04-01T09:46:26.445Z,11.64
2023-04-01T09:49:07.150Z,11.66
2023-04-01T09:52:04.906Z,11.68
2023-04-01T09:54:51.492Z,11.67
2023-04-01T09:57:29.020Z,11.57
2023-04-01T10:00:19.057Z,11.46
2023-04-01T10:02:56.658Z,11.63
2023-04-01T10:05:37.006Z,11.59
2023-04-01T10:08:11.158Z,11.72
2023-04-01T10:10:55.403Z,11.77
2023-04-01T10:13:45.176Z,11.96
2023-04-01T10:16:31.948Z,11.86
2023-04-01T10:19:06.258Z,11.96
2023-04-01T10:21:56.347Z,11.85
2023-04-01T10:24:27.646Z,11.70
2023-04-01T10:27:10.766Z,11.52
2023-04-01T10:29:48.154Z,11.64
2023-04-01T10:32:29.217Z,11.72
2023-04-01T10:35:10.118Z,11.76
2023-04-01T10:37:41.486Z,11.41
2023-04-01T10:40:31.639Z,10.98
2023-04-01T10:43:22.369Z,10.81
2023-04-01T10:46:14.844Z,10.89
2023-04-01T10:48:49.722Z,10.64
2023-04-01T10:51:45.701Z,10.56
2023-04-01T10:54:35.572Z,10.54
2023-04-01T10:57:24.693Z,10.30
2023-04-01T11:00:05.162Z,9.96
2023-04-01T11:02:36.564Z,9.98
2023-04-01T11:05:19.449Z,9.84
2023-04-01T11:08:10.852Z,9.88
2023-04-01T11:10:48.087Z,10.08
2023-04-01T11:13:22.587Z,10.12
2023-04-01T11:16:13.297Z,10.17
2023-04-01T11:19:00.431Z,10.35
2023-04-01T11:21:50.662Z,10.26
2023-04-01T11:24:42.388Z,10.37
2023-04-01T11:27:23.923Z,10.15
2023-04-01T11:30:00.353Z,10.26
2023-04-01T11:32:47.314Z,10.25
2023-04-01T11:35:22.140Z,10.05
2023-04-01T11:37:56.249Z,9.82
2023-04-01T11:40:41.746Z,9.83
2023-04-01T11:43:26.162Z,9.76
2023-04-01T11:46:20.234Z,9.40
2023-04-01T11:48:52.005Z,9.19
2023-04-01T11:51:34.380Z,9.21
2023-04-01T11:54:17.633Z,8.81
2023-04-01T11:56:49.091Z,8.78
2023-04-01T11:59:26.342Z,8.95
2023-04-01T12:01:57.680Z,8.82
2023-04-01T12:04:41.170Z,8.70
2023-04-01T12:07:15.401Z,8.80
2023-04-01T12:10:05.892Z,8.56
2023-04-01T12:12:54.014Z,8.56
2023-04-01T12:15:56.175Z,8.47
2023-04-01T12:18:49.669Z,8.41
2023-04-01T12:21:27.148Z,8.36
2023-04-01T12:24:10.659Z,8.41
2023-04-01T12:26:48.250Z,8.49
2023-04-01T12:29:23.955Z,8.37
2023-04-01T12:32:07.411Z,8.44
2023-04-01T12:34:44.985Z,8.46
2023-04-01T12:37:42.422Z,8.41
2023-04-01T12:40:32.163Z,8.34
2023-04-01T12:43:22.769Z,8.35
2023-04-01T12:45:54.175Z,8.32
2023-04-01T12:48:44.405Z,8.35
2023-04-01T12:51:28.073Z,8.36
2023-04-01T12:54:18.318Z,8.44
2023-04-01T12:57:05.717Z,8.31
2023-04-01T12:59:39.877Z,8.33
2023-04-01T13:02:11.324Z,8.26
2023-04-01T13:05:00.729Z,8.36
2023-04-01T13:07:39.078Z,8.36
2023-04-01T13:10:10.414Z,8.30
2023-04-01T13:12:59.869Z,8.31
2023-04-01T13:15:31.506Z,8.23
2023-04-01T13:18:15.431Z,8.12
2023-04-01T13:21:28.243Z,8.27
2023-04-01T13:24:02.511Z,8.32
2023-04-01T13:26:39.807Z,8.35
2023-04-01T13:29:14.775Z,8.43
2023-04-01T13:31:47.189Z,8.36
2023-04-01T13:34:30.647Z,8.42
2023-04-01T13:37:02.597Z,8.46
2023-04-01T13:39:43.754Z,8.35
2023-04-01T13:42:16.221Z,8.35
2023-04-01T13:44:53.489Z,8.37
2023-04-01T13:47:33.906Z,8.49
2023-04-01T13:50:17.429Z,8.66
2023-04-01T13:52:48.755Z,8.79
2023-04-01T13:55:52.247Z,8.75
2023-04-01T13:58:50.239Z,8.89
2023-04-01T14:01:30.452Z,9.07
2023-04-01T14:04:15.400Z,9.19
2023-04-01T14:06:58.743Z,9.23
2023-04-01T14:09:34.434Z,9.05
2023-04-01T14:12:11.258Z,9.14
2023-04-01T14:15:05.681Z,9.12
2023-04-01T14:17:37.183Z,9.07
2023-04-01T14:20:23.754Z,8.95
2023-04-01T14:23:13.896Z,9.08
2023-04-01T14:26:04.099Z,9.09
2023-04-01T14:28:54.388Z,9.13
2023-04-01T14:31:28.800Z,9.08
2023-04-01T14:34:18.275Z,8.96
2023-04-01T14:36:55.064Z,8.91
2023-04-01T14:39:32.165Z,8.93
2023-04-01T14:42:24.499Z,9.00
2023-04-01T14:45:08.167Z,8.80
2023-04-01T14:47:58.054Z,8.92
2023-04-01T14:50:30.233Z,8.98
2023-04-01T14:53:26.000Z,8.76
2023-04-01T14:55:58.231Z,8.73
2023-04-01T14:58:43.919Z,8.69
2023-04-01T15:01:43.380Z,8.48
2023-04-01T15:04:23.971Z,8.34
2023-04-01T15:07:01.916Z,8.53
2023-04-01T15:09:39.983Z,8.57
2023-04-01T15:12:17.538Z,8.72
2023-04-01T15:14:48.856Z,8.86
2023-04-01T15:17:39.989Z,8.90
2023-04-01T15:20:24.593Z,8.95
2023-04-01T15:23:16.882Z,8.91
2023-04-01T15:26:20.841Z,9.06
2023-04-01T15:29:11.019Z,9.28
2023-04-01T15:32:02.753Z,9.45
2023-04-01T15:34:40.782Z,9.31
2023-04-01T15:37:23.976Z,9.28
2023-04-01T15:40:02.168Z,9.50
2023-04-01T15:42:39.686Z,9.61
2023-04-01T15:45:11.122Z,9.84
2023-04-01T15:48:02.981Z,10.29
2023-04-01T15:50:55.017Z,10.39
2023-04-01T15:53:32.450Z,10.37
2023-04-01T15:56:23.857Z,10.42
2023-04-01T15:59:01.394Z,10.50
2023-04-01T16:01:52.136Z,10.44
2023-04-01T16:04:42.029Z,10.61
2023-04-01T16:07:13.353Z,10.50
2023-04-01T16:09:53.479Z,10.40
2023-04-01T16:12:31.964Z,10.09
2023-04-01T16:15:04.355Z,9.95
2023-04-01T16:17:45.234Z,9.90
2023-04-01T16:20:38.947Z,9.85
2023-04-01T16:23:30.258Z,9.49
2023-04-01T16:26:17.624Z,9.35
2023-04-01T16:28:58.395Z,9.42
2023-04-01T16:31:37.030Z,9.25
2023-04-01T16:34:21.634Z,9.24
2023-04-01T16:36:56.052Z,9.24
2023-04-01T16:39:30.299Z,9.16
2023-04-01T16:42:08.609Z,9.13
2023-04-01T16:44:51.043Z,9.11
2023-04-01T16:47:25.565Z,8.98
2023-04-01T16:50:05.938Z,8.94
2023-04-01T16:52:49.024Z,8.97
2023-04-01T16:55:21.958Z,8.95
2023-04-01T16:58:02.740Z,8.93
2023-04-01T17:00:52.598Z,8.95
2023-04-01T17:03:31.282Z,8.93
2023-04-01T17:06:13.200Z,8.91
2023-04-01T17:08:53.842Z,8.87
2023-04-01T17:11:34.036Z,8.81
2023-04-01T17:14:05.359Z,8.83
2023-04-01T17:16:45.962Z,8.85
2023-04-01T17:19:23.898Z,8.76
2023-04-01T17:22:02.621Z,8.79
2023-04-01T17:24:43.811Z,8.77
2023-04-01T17:27:24.468Z,8.75
2023-04-01T17:29:55.975Z,8.75
2023-04-01T17:32:27.369Z,8.67
2023-04-01T17:35:08.664Z,8.69
2023-04-01T17:37:43.121Z,8.67
2023-04-01T17:40:29.902Z,8.68
2023-04-01T17:43:09.762Z,8.70
2023-04-01T17:45:47.344Z,8.60
2023-04-01T17:48:28.251Z,8.66
2023-04-01T17:51:06.605Z,8.64
2023-04-01T17:53:37.937Z,8.52
2023-04-01T17:56:28.116Z,8.57
2023-04-01T17:59:02.523Z,8.59
2023-04-01T18:01:37.183Z,8.58
2023-04-01T18:04:11.587Z,8.57
2023-04-01T18:07:11.687Z,8.51
2023-04-01T18:09:49.285Z,8.50
2023-04-01T18:12:20.703Z,8.53
2023-04-01T18:15:12.026Z,8.45
2023-04-01T18:17:46.730Z,8.42
2023-04-01T18:20:18.106Z,8.45
2023-04-01T18:22:58.234Z,8.44
2023-04-01T18:25:29.583Z,8.39
2023-04-01T18:28:07.062Z,8.40
2023-04-01T18:30:40.472Z,8.38
2023-04-01T18:33:20.827Z,8.38
2023-04-01T18:36:15.841Z,8.34
2023-04-01T18:38:51.431Z,8.19
2023-04-01T18:41:28.009Z,8.21
2023-04-01T18:44:07.001Z,8.24
2023-04-01T18:46:57.207Z,8.23
2023-04-01T18:49:31.566Z,8.23
2023-04-01T18:52:18.207Z,8.21
2023-04-01T18:55:01.745Z,8.17
2023-04-01T18:57:42.361Z,8.15
2023-04-01T19:00:23.401Z,8.15
2023-04-01T19:03:04.000Z,8.15
2023-04-01T19:05:39.033Z,8.10
2023-04-01T19:08:18.388Z,8.09
2023-04-01T19:11:00.525Z,8.07
2023-04-01T19:13:40.974Z,8.02
2023-04-01T19:16:12.653Z,7.99
2023-04-01T19:18:50.296Z,7.97
2023-04-01T19:21:27.859Z,7.87
2023-04-01T19:23:59.504Z,7.89
2023-04-01T19:26:31.178Z,7.85
2023-04-01T19:29:25.034Z,7.87
2023-04-01T19:31:56.564Z,7.82
2023-04-01T19:34:46.589Z,7.79
2023-04-01T19:37:18.291Z,7.74
2023-04-01T19:40:08.457Z,7.71
2023-04-01T19:42:41.400Z,7.63
2023-04-01T19:45:16.570Z,7.61
2023-04-01T19:47:47.968Z,7.54
2023-04-01T19:50:36.790Z,7.52
2023-04-01T19:53:20.702Z,7.42
2023-04-01T19:56:22.708Z,7.38
2023-04-01T19:59:01.476Z,7.32
2023-04-01T20:01:47.538Z,7.32
2023-04-01T20:04:26.857Z,7.31
2023-04-01T20:07:03.577Z,7.25
2023-04-01T20:09:46.689Z,7.21
2023-04-01T20:12:37.249Z,7.20
2023-04-01T20:15:31.185Z,7.15
2023-04-01T20:18:13.778Z,7.11
2023-04-01T20:21:17.336Z,7.11
2023-04-01T20:23:48.701Z,7.12
2023-04-01T20:26:22.114Z,7.14
2023-04-01T20:29:08.828Z,7.05
2023-04-01T20:31:46.417Z,7.06
2023-04-01T20:34:37.009Z,7.05
2023-04-01T20:37:18.997Z,7.05
2023-04-01T20:40:08.941Z,7.03
2023-04-01T20:42:40.362Z,7.09
2023-04-01T20:45:28.198Z,7.10
2023-04-01T20:47:59.539Z,7.14
2023-04-01T20:50:32.037Z,7.14
2023-04-01T20:53:18.565Z,7.11
2023-04-01T20:56:07.933Z,7.01
2023-04-01T20:58:48.523Z,7.02
2023-04-01T21:01:38.771Z,7.09
2023-04-01T21:04:16.459Z,7.14
2023-04-01T21:07:01.082Z,7.06
2023-04-01T21:09:48.791Z,7.08
2023-04-01T21:12:32.613Z,7.10
2023-04-01T21:15:22.766Z,7.18
2023-04-01T21:18:13.223Z,7.19
2023-04-01T21:20:48.321Z,7.22
2023-04-01T21:23:38.421Z,7.19
2023-04-01T21:26:19.029Z,7.18
2023-04-01T21:28:57.431Z,7.23
2023-04-01T21:31:41.289Z,7.22
2023-04-01T21:34:31.723Z,7.23
2023-04-01T21:37:03.072Z,7.24
2023-04-01T21:39:53.568Z,7.17
2023-04-01T21:42:35.067Z,7.12
2023-04-01T21:45:09.257Z,7.22
2023-04-01T21:47:59.502Z,7.22
2023-04-01T21:50:42.959Z,7.24
2023-04-01T21:53:17.298Z,7.21
2023-04-01T21:55:48.604Z,7.21
2023-04-01T21:58:38.947Z,7.20
2023-04-01T22:01:29.101Z,7.24
2023-04-01T22:04:06.489Z,7.28
2023-04-01T22:06:41.411Z,7.24
2023-04-01T22:09:18.949Z,7.31
2023-04-01T22:11:57.708Z,7.22
2023-04-01T22:14:43.126Z,7.21
2023-04-01T22:17:24.325Z,7.28
2023-04-01T22:20:11.228Z,7.31
2023-04-01T22:23:01.586Z,7.31
2023-04-01T22:25:58.813Z,7.29
2023-04-01T22:28:37.821Z,7.34
2023-04-01T22:31:11.765Z,7.35
2023-04-01T22:34:02.138Z,7.30
2023-04-01T22:36:53.708Z,7.38
2023-04-01T22:39:29.643Z,7.39
2023-04-01T22:42:05.499Z,7.39
2023-04-01T22:44:42.812Z,7.33
2023-04-01T22:47:21.614Z,7.35
2023-04-01T22:50:00.572Z,7.38
2023-04-01T22:52:38.738Z,7.40
2023-04-01T22:55:16.791Z,7.39
2023-04-01T22:58:00.556Z,7.35
2023-04-01T23:00:44.267Z,7.38
2023-04-01T23:03:15.600Z,7.36
2023-04-01T23:05:51.807Z,7.36
2023-04-01T23:08:23.132Z,7.32
2023-04-01T23:10:59.670Z,7.36
2023-04-01T23:13:35.157Z,7.38
2023-04-01T23:16:08.080Z,7.39
2023-04-01T23:18:51.627Z,7.41
2023-04-01T23:21:29.202Z,7.40
2023-04-01T23:24:20.787Z,7.39
2023-04-01T23:26:52.343Z,7.36
2023-04-01T23:29:24.400Z,7.37
2023-04-01T23:31:58.857Z,7.41
2023-04-01T23:34:35.447Z,7.34
2023-04-01T23:37:12.545Z,7.30
2023-04-01T23:39:46.484Z,7.35
2023-04-01T23:42:44.212Z,7.31
2023-04-01T23:45:18.641Z,7.31
2023-04-01T23:47:51.502Z,7.29
2023-04-01T23:50:26.569Z,7.31
2023-04-01T23:53:12.038Z,7.26
2023-04-01T23:55:43.881Z,7.33
2023-04-01T23:58:24.533Z,7.28
